createdAt,value
2017-01-09T00:00:46.543Z,-6.36
2017-01-09T00:01:55.223Z,-6.33
2017-01-09T00:03:03.906Z,-6.34
2017-01-09T00:04:12.591Z,-6.41
2017-01-09T00:05:21.272Z,-6.45
2017-01-09T00:06:29.955Z,-6.45
2017-01-09T00:07:38.639Z,-6.36
2017-01-09T00:08:47.318Z,-6.45
2017-01-09T00:09:56.007Z,-6.46
2017-01-09T00:11:04.716Z,-6.41
2017-01-09T00:12:13.411Z,-6.51
2017-01-09T00:13:22.093Z,-6.51
2017-01-09T00:14:30.780Z,-6.42
2017-01-09T00:15:39.460Z,-6.34
2017-01-09T00:16:48.142Z,-6.38
2017-01-09T00:17:56.826Z,-6.34
2017-01-09T00:19:05.516Z,-6.36
2017-01-09T00:20:14.204Z,-6.31
2017-01-09T00:21:22.884Z,-6.34
2017-01-09T00:22:31.595Z,-6.27
2017-01-09T00:23:40.281Z,-6.23
2017-01-09T00:24:48.965Z,-6.23
2017-01-09T00:25:57.646Z,-6.3
2017-01-09T00:27:06.328Z,-6.31
2017-01-09T00:28:15.013Z,-6.36
2017-01-09T00:29:23.693Z,-6.16
2017-01-09T00:30:32.370Z,-6.24
2017-01-09T00:31:41.054Z,-6.2
2017-01-09T00:32:50.132Z,-6.06
2017-01-09T00:33:58.810Z,-6.1
2017-01-09T00:35:07.496Z,-5.99
2017-01-09T00:36:16.177Z,-5.92
2017-01-09T00:37:24.862Z,-5.89
2017-01-09T00:38:33.542Z,-5.76
2017-01-09T00:39:42.220Z,-5.7
2017-01-09T00:40:50.897Z,-5.7
2017-01-09T00:41:59.581Z,-5.76
2017-01-09T00:43:08.270Z,-5.63
2017-01-09T00:44:16.949Z,-5.67
2017-01-09T00:45:25.627Z,-5.66
2017-01-09T00:46:34.307Z,-5.6
2017-01-09T00:47:42.992Z,-5.7
2017-01-09T00:48:51.680Z,-5.82
2017-01-09T00:50:00.369Z,-5.85
2017-01-09T00:51:09.047Z,-5.76
2017-01-09T00:52:17.732Z,-5.77
2017-01-09T00:53:26.418Z,-5.77
2017-01-09T00:54:35.501Z,-5.89
2017-01-09T00:55:44.187Z,-5.81
2017-01-09T00:56:52.894Z,-5.77
2017-01-09T00:58:01.580Z,-5.94
2017-01-09T00:59:10.269Z,-5.77
2017-01-09T01:00:18.945Z,-5.91
2017-01-09T01:01:27.625Z,-5.88
2017-01-09T01:02:36.308Z,-5.91
2017-01-09T01:03:44.989Z,-5.78
2017-01-09T01:04:53.669Z,-5.88
2017-01-09T01:06:02.356Z,-5.91
2017-01-09T01:07:11.036Z,-5.87
2017-01-09T01:08:19.715Z,-5.91
2017-01-09T01:09:28.398Z,-5.92
2017-01-09T01:10:37.082Z,-5.91
2017-01-09T01:11:45.762Z,-5.87
2017-01-09T01:12:54.453Z,-5.91
2017-01-09T01:14:03.137Z,-5.89
2017-01-09T01:15:11.817Z,-5.91
2017-01-09T01:16:20.501Z,-5.91
2017-01-09T01:17:29.185Z,-5.87
2017-01-09T01:18:37.873Z,-5.78
2017-01-09T01:19:46.584Z,-5.82
2017-01-09T01:20:55.264Z,-5.77
2017-01-09T01:22:03.947Z,-5.71
2017-01-09T01:23:12.630Z,-5.68
2017-01-09T01:24:21.306Z,-5.6
2017-01-09T01:25:29.995Z,-5.58
2017-01-09T01:26:39.088Z,-5.58
2017-01-09T01:27:47.772Z,-5.58
2017-01-09T01:28:56.451Z,-5.6
2017-01-09T01:30:05.135Z,-5.6
2017-01-09T01:31:13.816Z,-5.58
2017-01-09T01:32:22.499Z,-5.55
2017-01-09T01:33:31.179Z,-5.59
2017-01-09T01:34:39.857Z,-5.59
2017-01-09T01:35:48.540Z,-5.58
2017-01-09T01:36:57.223Z,-5.5
2017-01-09T01:38:05.907Z,-5.49
2017-01-09T01:39:14.583Z,-5.5
2017-01-09T01:40:23.266Z,-5.45
2017-01-09T01:41:31.945Z,-5.41
2017-01-09T01:42:40.621Z,-5.46
2017-01-09T01:43:49.306Z,-5.38
2017-01-09T01:44:57.991Z,-5.38
2017-01-09T01:46:06.674Z,-5.31
2017-01-09T01:47:15.362Z,-5.27
2017-01-09T01:48:24.042Z,-5.25
2017-01-09T01:49:32.733Z,-5.27
2017-01-09T01:50:41.413Z,-5.19
2017-01-09T01:51:50.094Z,-5.19
2017-01-09T01:52:58.779Z,-5.19
2017-01-09T01:54:07.464Z,-5.2
2017-01-09T01:55:16.149Z,-5.23
2017-01-09T01:56:24.832Z,-5.2
2017-01-09T01:57:33.517Z,-5.17
2017-01-09T01:58:42.197Z,-5.08
2017-01-09T01:59:50.875Z,-5.17
2017-01-09T02:00:59.561Z,-5.08
2017-01-09T02:02:08.245Z,-5.06
2017-01-09T02:03:16.928Z,-5.02
2017-01-09T02:04:25.609Z,-5.16
2017-01-09T02:05:34.292Z,-5.19
2017-01-09T02:06:42.978Z,-5.13
2017-01-09T02:07:51.664Z,-5.16
2017-01-09T02:09:00.350Z,-5.16
2017-01-09T02:10:09.035Z,-5.13
2017-01-09T02:11:17.716Z,-5.12
2017-01-09T02:12:26.397Z,-5.09
2017-01-09T02:13:35.084Z,-5.08
2017-01-09T02:14:43.766Z,-5.13
2017-01-09T02:15:52.446Z,-5
2017-01-09T02:17:01.136Z,-5.02
2017-01-09T02:18:09.818Z,-5.06
2017-01-09T02:19:18.509Z,-4.98
2017-01-09T02:20:27.192Z,-5
2017-01-09T02:21:35.883Z,-5.08
2017-01-09T02:22:44.593Z,-5.06
2017-01-09T02:23:53.274Z,-5
2017-01-09T02:25:01.958Z,-5.08
2017-01-09T02:26:10.650Z,-5.01
2017-01-09T02:27:19.334Z,-5.13
2017-01-09T02:28:28.014Z,-5.02
2017-01-09T02:29:36.703Z,-4.98
2017-01-09T02:30:45.386Z,-5.01
2017-01-09T02:31:54.070Z,-5.05
2017-01-09T02:33:02.750Z,-5.05
2017-01-09T02:34:11.462Z,-5.05
2017-01-09T02:35:20.148Z,-5.12
2017-01-09T02:36:28.827Z,-5.02
2017-01-09T02:37:38.004Z,-5.05
2017-01-09T02:38:46.693Z,-4.92
2017-01-09T02:39:55.373Z,-4.94
2017-01-09T02:41:04.063Z,-4.95
2017-01-09T02:42:12.744Z,-4.95
2017-01-09T02:43:21.436Z,-4.91
2017-01-09T02:44:30.120Z,-4.91
2017-01-09T02:45:38.803Z,-4.97
2017-01-09T02:46:47.489Z,-4.92
2017-01-09T02:47:56.172Z,-4.94
2017-01-09T02:49:04.853Z,-4.92
2017-01-09T02:50:13.538Z,-4.94
2017-01-09T02:51:22.218Z,-4.9
2017-01-09T02:52:30.913Z,-4.9
2017-01-09T02:53:39.594Z,-4.92
2017-01-09T02:54:48.273Z,-4.91
2017-01-09T02:55:56.954Z,-4.81
2017-01-09T02:57:05.636Z,-4.73
2017-01-09T02:58:14.316Z,-4.62
2017-01-09T02:59:23.006Z,-4.67
2017-01-09T03:00:31.742Z,-4.76
2017-01-09T03:01:40.424Z,-4.71
2017-01-09T03:02:49.107Z,-4.62
2017-01-09T03:03:57.795Z,-4.65
2017-01-09T03:05:06.480Z,-4.69
2017-01-09T03:06:15.173Z,-4.73
2017-01-09T03:07:23.859Z,-4.69
2017-01-09T03:08:32.547Z,-4.73
2017-01-09T03:09:41.236Z,-4.67
2017-01-09T03:10:49.926Z,-4.59
2017-01-09T03:11:58.610Z,-4.74
2017-01-09T03:13:07.298Z,-4.71
2017-01-09T03:14:15.988Z,-4.73
2017-01-09T03:15:24.671Z,-4.67
2017-01-09T03:16:33.356Z,-4.59
2017-01-09T03:17:42.042Z,-4.56
2017-01-09T03:18:50.725Z,-4.59
2017-01-09T03:19:59.404Z,-4.63
2017-01-09T03:21:08.086Z,-4.63
2017-01-09T03:22:16.772Z,-4.63
2017-01-09T03:23:25.460Z,-4.74
2017-01-09T03:24:34.149Z,-4.69
2017-01-09T03:25:42.832Z,-4.65
2017-01-09T03:26:51.515Z,-4.7
2017-01-09T03:28:00.195Z,-4.69
2017-01-09T03:29:08.882Z,-4.76
2017-01-09T03:30:17.565Z,-4.76
2017-01-09T03:31:26.253Z,-4.8
2017-01-09T03:32:34.939Z,-4.7
2017-01-09T03:33:43.622Z,-4.88
2017-01-09T03:34:52.305Z,-4.83
2017-01-09T03:36:00.990Z,-4.87
2017-01-09T03:37:09.676Z,-4.83
2017-01-09T03:38:18.359Z,-4.84
2017-01-09T03:39:27.042Z,-4.92
2017-01-09T03:40:35.758Z,-4.94
2017-01-09T03:41:44.441Z,-4.92
2017-01-09T03:42:53.125Z,-4.97
2017-01-09T03:44:01.838Z,-4.98
2017-01-09T03:45:10.918Z,-4.87
2017-01-09T03:46:19.604Z,-4.9
2017-01-09T03:47:28.288Z,-4.91
2017-01-09T03:48:36.973Z,-5
2017-01-09T03:49:45.656Z,-4.94
2017-01-09T03:50:54.342Z,-5.05
2017-01-09T03:52:03.023Z,-4.94
2017-01-09T03:53:11.703Z,-5.05
2017-01-09T03:54:20.385Z,-5.06
2017-01-09T03:55:29.076Z,-4.94
2017-01-09T03:56:37.755Z,-4.92
2017-01-09T03:57:46.440Z,-4.91
2017-01-09T03:58:55.128Z,-4.91
2017-01-09T04:00:03.816Z,-4.83
2017-01-09T04:01:12.500Z,-4.87
2017-01-09T04:02:21.197Z,-4.79
2017-01-09T04:03:30.282Z,-4.87
2017-01-09T04:04:38.965Z,-4.84
2017-01-09T04:05:47.645Z,-4.84
2017-01-09T04:06:56.331Z,-4.73
2017-01-09T04:08:05.020Z,-4.67
2017-01-09T04:09:13.699Z,-4.56
2017-01-09T04:10:22.400Z,-4.7
2017-01-09T04:11:31.082Z,-4.59
2017-01-09T04:12:39.767Z,-4.52
2017-01-09T04:13:48.447Z,-4.58
2017-01-09T04:14:57.129Z,-4.45
2017-01-09T04:16:05.815Z,-4.42
2017-01-09T04:17:14.505Z,-4.51
2017-01-09T04:18:23.186Z,-4.49
2017-01-09T04:19:31.870Z,-4.63
2017-01-09T04:20:40.947Z,-4.69
2017-01-09T04:21:49.638Z,-4.67
2017-01-09T04:22:58.317Z,-4.63
2017-01-09T04:24:07.002Z,-4.73
2017-01-09T04:25:15.688Z,-4.58
2017-01-09T04:26:24.367Z,-4.62
2017-01-09T04:27:33.053Z,-4.53
2017-01-09T04:28:41.740Z,-4.53
2017-01-09T04:29:50.430Z,-4.58
2017-01-09T04:30:59.114Z,-4.56
2017-01-09T04:32:07.825Z,-4.51
2017-01-09T04:33:16.512Z,-4.53
2017-01-09T04:34:25.191Z,-4.59
2017-01-09T04:35:33.877Z,-4.55
2017-01-09T04:36:42.557Z,-4.55
2017-01-09T04:37:51.238Z,-4.45
2017-01-09T04:38:59.922Z,-4.44
2017-01-09T04:40:08.608Z,-4.55
2017-01-09T04:41:17.296Z,-4.56
2017-01-09T04:42:25.975Z,-4.58
2017-01-09T04:43:34.684Z,-4.56
2017-01-09T04:44:43.395Z,-4.62
2017-01-09T04:45:52.080Z,-4.62
2017-01-09T04:47:00.763Z,-4.58
2017-01-09T04:48:09.451Z,-4.58
2017-01-09T04:49:18.138Z,-4.53
2017-01-09T04:50:26.847Z,-4.58
2017-01-09T04:51:35.528Z,-4.58
2017-01-09T04:52:44.212Z,-4.56
2017-01-09T04:53:52.903Z,-4.56
2017-01-09T04:55:01.588Z,-4.55
2017-01-09T04:56:10.279Z,-4.59
2017-01-09T04:57:18.964Z,-4.53
2017-01-09T04:58:28.043Z,-4.58
2017-01-09T04:59:36.734Z,-4.42
2017-01-09T05:00:45.415Z,-4.42
2017-01-09T05:01:54.496Z,-4.44
2017-01-09T05:03:03.177Z,-4.58
2017-01-09T05:04:11.863Z,-4.55
2017-01-09T05:05:20.545Z,-4.53
2017-01-09T05:06:29.228Z,-4.59
2017-01-09T05:07:37.910Z,-4.53
2017-01-09T05:08:46.602Z,-4.55
2017-01-09T05:09:55.282Z,-4.58
2017-01-09T05:11:03.994Z,-4.59
2017-01-09T05:12:12.683Z,-4.52
2017-01-09T05:13:21.364Z,-4.56
2017-01-09T05:14:30.048Z,-4.51
2017-01-09T05:15:38.735Z,-4.45
2017-01-09T05:16:47.424Z,-4.41
2017-01-09T05:17:56.126Z,-4.44
2017-01-09T05:19:04.815Z,-4.4
2017-01-09T05:20:13.504Z,-4.41
2017-01-09T05:21:22.189Z,-4.42
2017-01-09T05:22:30.882Z,-4.41
2017-01-09T05:23:39.568Z,-4.45
2017-01-09T05:24:48.251Z,-4.38
2017-01-09T05:25:56.936Z,-4.37
2017-01-09T05:27:05.621Z,-4.41
2017-01-09T05:28:14.310Z,-4.33
2017-01-09T05:29:22.990Z,-4.33
2017-01-09T05:30:31.674Z,-4.31
2017-01-09T05:31:40.361Z,-4.27
2017-01-09T05:32:49.446Z,-4.34
2017-01-09T05:33:58.135Z,-4.22
2017-01-09T05:35:06.820Z,-4.24
2017-01-09T05:36:15.506Z,-4.22
2017-01-09T05:37:24.189Z,-4.23
2017-01-09T05:38:32.885Z,-4.26
2017-01-09T05:39:41.565Z,-4.22
2017-01-09T05:40:50.247Z,-4.22
2017-01-09T05:41:58.929Z,-4.16
2017-01-09T05:43:07.615Z,-4.24
2017-01-09T05:44:16.296Z,-4.23
2017-01-09T05:45:24.979Z,-4.19
2017-01-09T05:46:33.663Z,-4.31
2017-01-09T05:47:42.350Z,-4.33
2017-01-09T05:48:51.029Z,-4.33
2017-01-09T05:49:59.710Z,-4.31
2017-01-09T05:51:08.405Z,-4.37
2017-01-09T05:52:17.092Z,-4.42
2017-01-09T05:53:25.773Z,-4.41
2017-01-09T05:54:34.462Z,-4.4
2017-01-09T05:55:43.145Z,-4.41
2017-01-09T05:56:51.838Z,-4.44
2017-01-09T05:58:00.520Z,-4.35
2017-01-09T05:59:09.204Z,-4.33
2017-01-09T06:00:17.892Z,-4.35
2017-01-09T06:01:26.578Z,-4.44
2017-01-09T06:02:35.267Z,-4.44
2017-01-09T06:03:43.947Z,-4.42
2017-01-09T06:04:52.633Z,-4.44
2017-01-09T06:06:01.336Z,-4.51
2017-01-09T06:07:10.024Z,-4.58
2017-01-09T06:08:18.706Z,-4.51
2017-01-09T06:09:27.390Z,-4.56
2017-01-09T06:10:36.078Z,-4.53
2017-01-09T06:11:44.765Z,-4.59
2017-01-09T06:12:53.449Z,-4.59
2017-01-09T06:14:02.132Z,-4.55
2017-01-09T06:15:10.820Z,-4.61
2017-01-09T06:16:19.504Z,-4.59
2017-01-09T06:17:28.194Z,-4.71
2017-01-09T06:18:36.882Z,-4.62
2017-01-09T06:19:45.562Z,-4.58
2017-01-09T06:20:54.245Z,-4.67
2017-01-09T06:22:02.932Z,-4.58
2017-01-09T06:23:11.633Z,-4.56
2017-01-09T06:24:20.317Z,-4.55
2017-01-09T06:25:29.000Z,-4.45
2017-01-09T06:26:37.688Z,-4.56
2017-01-09T06:27:46.374Z,-4.53
2017-01-09T06:28:55.058Z,-4.53
2017-01-09T06:30:03.769Z,-4.58
2017-01-09T06:31:12.450Z,-4.58
2017-01-09T06:32:21.130Z,-4.56
2017-01-09T06:33:29.816Z,-4.65
2017-01-09T06:34:38.495Z,-4.7
2017-01-09T06:35:47.181Z,-4.65
2017-01-09T06:36:55.869Z,-4.73
2017-01-09T06:38:04.552Z,-4.69
2017-01-09T06:39:13.246Z,-4.69
2017-01-09T06:40:21.932Z,-4.67
2017-01-09T06:41:30.617Z,-4.76
2017-01-09T06:42:39.301Z,-4.59
2017-01-09T06:43:47.991Z,-4.67
2017-01-09T06:44:56.669Z,-4.59
2017-01-09T06:46:05.350Z,-4.63
2017-01-09T06:47:14.032Z,-4.53
2017-01-09T06:48:22.716Z,-4.62
2017-01-09T06:49:31.423Z,-4.49
2017-01-09T06:50:40.108Z,-4.53
2017-01-09T06:51:48.793Z,-4.42
2017-01-09T06:52:57.487Z,-4.44
2017-01-09T06:54:06.201Z,-4.4
2017-01-09T06:55:14.904Z,-4.49
2017-01-09T06:56:23.590Z,-4.42
2017-01-09T06:57:32.285Z,-4.41
2017-01-09T06:58:40.977Z,-4.35
2017-01-09T06:59:49.668Z,-4.37
2017-01-09T07:00:58.752Z,-4.37
2017-01-09T07:02:07.444Z,-4.27
2017-01-09T07:03:16.126Z,-4.23
2017-01-09T07:04:24.809Z,-4.27
2017-01-09T07:05:33.498Z,-4.37
2017-01-09T07:06:42.192Z,-4.3
2017-01-09T07:07:50.869Z,-4.3
2017-01-09T07:08:59.554Z,-4.2
2017-01-09T07:10:08.243Z,-4.22
2017-01-09T07:11:16.934Z,-4.19
2017-01-09T07:12:25.618Z,-4.23
2017-01-09T07:13:34.307Z,-4.23
2017-01-09T07:14:42.999Z,-4.24
2017-01-09T07:15:51.683Z,-4.14
2017-01-09T07:17:00.371Z,-4.17
2017-01-09T07:18:09.064Z,-4.23
2017-01-09T07:19:18.147Z,-4.19
2017-01-09T07:20:26.855Z,-4.14
2017-01-09T07:21:35.539Z,-4.06
2017-01-09T07:22:44.221Z,-4.12
2017-01-09T07:23:52.956Z,-4.12
2017-01-09T07:25:01.638Z,-4.22
2017-01-09T07:26:10.324Z,-4.17
2017-01-09T07:27:19.011Z,-4.23
2017-01-09T07:28:27.696Z,-4.12
2017-01-09T07:29:36.379Z,-4.2
2017-01-09T07:30:45.064Z,-4.19
2017-01-09T07:31:53.749Z,-4.16
2017-01-09T07:33:02.430Z,-4.14
2017-01-09T07:34:11.110Z,-4.2
2017-01-09T07:35:19.790Z,-4.22
2017-01-09T07:36:28.478Z,-4.27
2017-01-09T07:37:37.563Z,-4.3
2017-01-09T07:38:46.243Z,-4.33
2017-01-09T07:39:54.927Z,-4.34
2017-01-09T07:41:03.610Z,-4.3
2017-01-09T07:42:12.296Z,-4.33
2017-01-09T07:43:20.981Z,-4.42
2017-01-09T07:44:29.663Z,-4.37
2017-01-09T07:45:38.342Z,-4.47
2017-01-09T07:46:47.039Z,-4.47
2017-01-09T07:47:55.728Z,-4.52
2017-01-09T07:49:04.409Z,-4.44
2017-01-09T07:50:13.096Z,-4.38
2017-01-09T07:51:21.775Z,-4.41
2017-01-09T07:52:30.485Z,-4.4
2017-01-09T07:53:39.177Z,-4.44
2017-01-09T07:54:47.899Z,-4.41
2017-01-09T07:55:56.581Z,-4.45
2017-01-09T07:57:05.275Z,-4.47
2017-01-09T07:58:13.972Z,-4.44
2017-01-09T07:59:22.661Z,-4.45
2017-01-09T08:00:31.347Z,-4.38
2017-01-09T08:01:40.028Z,-4.38
2017-01-09T08:02:48.715Z,-4.45
2017-01-09T08:03:57.391Z,-4.42
2017-01-09T08:05:06.077Z,-4.38
2017-01-09T08:06:14.761Z,-4.41
2017-01-09T08:07:23.449Z,-4.37
2017-01-09T08:08:32.160Z,-4.38
2017-01-09T08:09:40.849Z,-4.37
2017-01-09T08:10:49.540Z,-4.41
2017-01-09T08:11:58.219Z,-4.42
2017-01-09T08:13:06.899Z,-4.4
2017-01-09T08:14:15.588Z,-4.38
2017-01-09T08:15:24.295Z,-4.52
2017-01-09T08:16:32.982Z,-4.47
2017-01-09T08:17:41.670Z,-4.45
2017-01-09T08:18:50.376Z,-4.41
2017-01-09T08:19:59.059Z,-4.47
2017-01-09T08:21:07.742Z,-4.49
2017-01-09T08:22:16.429Z,-4.49
2017-01-09T08:23:25.118Z,-4.42
2017-01-09T08:24:33.804Z,-4.41
2017-01-09T08:25:42.513Z,-4.4
2017-01-09T08:26:51.195Z,-4.3
2017-01-09T08:27:59.880Z,-4.31
2017-01-09T08:29:08.583Z,-4.31
2017-01-09T08:30:17.273Z,-4.22
2017-01-09T08:31:25.958Z,-4.24
2017-01-09T08:32:34.646Z,-4.16
2017-01-09T08:33:43.332Z,-4.19
2017-01-09T08:34:52.023Z,-4.04
2017-01-09T08:36:00.707Z,-4.05
2017-01-09T08:37:09.393Z,-4.09
2017-01-09T08:38:18.078Z,-4.01
2017-01-09T08:39:26.760Z,-4.12
2017-01-09T08:40:35.440Z,-4.17
2017-01-09T08:41:44.150Z,-4.17
2017-01-09T08:42:52.842Z,-4.12
2017-01-09T08:44:01.532Z,-4.08
2017-01-09T08:45:10.219Z,-4.19
2017-01-09T08:46:18.903Z,-4.2
2017-01-09T08:47:27.590Z,-4.04
2017-01-09T08:48:36.676Z,-4.05
2017-01-09T08:49:45.363Z,-4.02
2017-01-09T08:50:54.047Z,-4.05
2017-01-09T08:52:02.731Z,-4.02
2017-01-09T08:53:11.416Z,-3.95
2017-01-09T08:54:20.102Z,-3.94
2017-01-09T08:55:28.818Z,-3.98
2017-01-09T08:56:37.504Z,-3.96
2017-01-09T08:57:46.190Z,-3.98
2017-01-09T08:58:54.870Z,-3.87
2017-01-09T09:00:03.556Z,-4.04
2017-01-09T09:01:12.239Z,-4.04
2017-01-09T09:02:20.926Z,-3.95
2017-01-09T09:03:29.610Z,-4.06
2017-01-09T09:04:38.334Z,-4.01
2017-01-09T09:05:47.025Z,-4.06
2017-01-09T09:06:56.108Z,-4.06
2017-01-09T09:08:04.795Z,-3.99
2017-01-09T09:09:13.481Z,-4.05
2017-01-09T09:10:22.160Z,-4.05
2017-01-09T09:11:30.843Z,-3.99
2017-01-09T09:12:39.539Z,-4.01
2017-01-09T09:13:48.220Z,-3.98
2017-01-09T09:14:56.907Z,-4.05
2017-01-09T09:16:05.589Z,-4.05
2017-01-09T09:17:14.275Z,-4.01
2017-01-09T09:18:22.956Z,-3.95
2017-01-09T09:19:31.641Z,-4.06
2017-01-09T09:20:40.324Z,-4.04
2017-01-09T09:21:49.010Z,-4.06
2017-01-09T09:22:57.693Z,-4.04
2017-01-09T09:24:06.378Z,-4.04
2017-01-09T09:25:15.068Z,-4.02
2017-01-09T09:26:23.756Z,-4.02
2017-01-09T09:27:32.438Z,-3.91
2017-01-09T09:28:41.520Z,-4.02
2017-01-09T09:29:50.209Z,-3.99
2017-01-09T09:30:58.890Z,-3.85
2017-01-09T09:32:07.569Z,-3.87
2017-01-09T09:33:16.254Z,-3.87
2017-01-09T09:34:24.939Z,-3.81
2017-01-09T09:35:33.626Z,-3.77
2017-01-09T09:36:42.308Z,-3.75
2017-01-09T09:37:51.001Z,-3.75
2017-01-09T09:38:59.679Z,-3.66
2017-01-09T09:40:08.362Z,-3.64
2017-01-09T09:41:17.049Z,-3.56
2017-01-09T09:42:25.734Z,-3.62
2017-01-09T09:43:34.419Z,-3.62
2017-01-09T09:44:43.104Z,-3.58
2017-01-09T09:45:51.787Z,-3.62
2017-01-09T09:47:00.468Z,-3.64
2017-01-09T09:48:09.155Z,-3.58
2017-01-09T09:49:17.835Z,-3.62
2017-01-09T09:50:26.520Z,-3.61
2017-01-09T09:51:35.205Z,-3.58
2017-01-09T09:52:43.886Z,-3.62
2017-01-09T09:53:52.963Z,-3.61
2017-01-09T09:55:01.642Z,-3.55
2017-01-09T09:56:10.332Z,-3.51
2017-01-09T09:57:19.040Z,-3.44
2017-01-09T09:58:27.725Z,-3.53
2017-01-09T09:59:36.408Z,-3.55
2017-01-09T10:00:45.093Z,-3.47
2017-01-09T10:01:53.776Z,-3.48
2017-01-09T10:03:02.454Z,-3.44
2017-01-09T10:04:11.141Z,-3.55
2017-01-09T10:05:19.824Z,-3.62
2017-01-09T10:06:28.506Z,-3.55
2017-01-09T10:07:37.191Z,-3.61
2017-01-09T10:08:45.872Z,-3.55
2017-01-09T10:09:54.554Z,-3.58
2017-01-09T10:11:03.240Z,-3.58
2017-01-09T10:12:11.929Z,-3.59
2017-01-09T10:13:20.622Z,-3.62
2017-01-09T10:14:29.307Z,-3.59
2017-01-09T10:15:37.992Z,-3.65
2017-01-09T10:16:46.682Z,-3.58
2017-01-09T10:17:55.362Z,-3.58
2017-01-09T10:19:04.045Z,-3.64
2017-01-09T10:20:12.731Z,-3.5
2017-01-09T10:21:21.416Z,-3.47
2017-01-09T10:22:30.100Z,-3.46
2017-01-09T10:23:38.789Z,-3.48
2017-01-09T10:24:47.479Z,-3.44
2017-01-09T10:25:56.160Z,-3.47
2017-01-09T10:27:04.843Z,-3.4
2017-01-09T10:28:13.530Z,-3.43
2017-01-09T10:29:22.214Z,-3.41
2017-01-09T10:30:30.895Z,-3.43
2017-01-09T10:31:39.581Z,-3.48
2017-01-09T10:32:48.270Z,-3.56
2017-01-09T10:33:56.952Z,-3.55
2017-01-09T10:35:05.636Z,-3.62
2017-01-09T10:36:14.345Z,-3.58
2017-01-09T10:37:23.029Z,-3.74
2017-01-09T10:38:31.708Z,-3.8
2017-01-09T10:39:40.400Z,-3.84
2017-01-09T10:40:49.082Z,-3.91
2017-01-09T10:41:57.780Z,-3.94
2017-01-09T10:43:06.478Z,-3.85
2017-01-09T10:44:15.168Z,-3.9
2017-01-09T10:45:23.850Z,-3.91
2017-01-09T10:46:32.538Z,-3.85
2017-01-09T10:47:41.222Z,-3.78
2017-01-09T10:48:49.904Z,-3.84
2017-01-09T10:49:58.587Z,-3.88
2017-01-09T10:51:07.276Z,-3.88
2017-01-09T10:52:15.990Z,-3.88
2017-01-09T10:53:24.674Z,-3.88
2017-01-09T10:54:33.362Z,-3.85
2017-01-09T10:55:42.049Z,-3.85
2017-01-09T10:56:50.733Z,-3.91
2017-01-09T10:57:59.422Z,-3.85
2017-01-09T10:59:08.108Z,-3.84
2017-01-09T11:00:16.792Z,-3.87
2017-01-09T11:01:25.476Z,-3.75
2017-01-09T11:02:34.160Z,-3.78
2017-01-09T11:03:42.847Z,-3.81
2017-01-09T11:04:51.535Z,-3.75
2017-01-09T11:06:00.220Z,-3.81
2017-01-09T11:07:08.916Z,-3.91
2017-01-09T11:08:17.605Z,-3.87
2017-01-09T11:09:26.340Z,-3.87
2017-01-09T11:10:35.027Z,-3.84
2017-01-09T11:11:43.754Z,-3.83
2017-01-09T11:12:52.437Z,-3.85
2017-01-09T11:14:01.125Z,-3.8
2017-01-09T11:15:09.810Z,-3.88
2017-01-09T11:16:18.495Z,-4.05
2017-01-09T11:17:27.180Z,-3.88
2017-01-09T11:18:35.867Z,-4.04
2017-01-09T11:19:44.554Z,-3.94
2017-01-09T11:20:53.239Z,-3.96
2017-01-09T11:22:01.923Z,-3.94
2017-01-09T11:23:10.611Z,-3.91
2017-01-09T11:24:19.299Z,-3.88
2017-01-09T11:25:27.992Z,-4.02
2017-01-09T11:26:36.684Z,-3.96
2017-01-09T11:27:45.376Z,-4.01
2017-01-09T11:28:54.063Z,-3.9
2017-01-09T11:30:02.748Z,-4.04
2017-01-09T11:31:11.440Z,-3.9
2017-01-09T11:32:20.123Z,-3.91
2017-01-09T11:33:28.815Z,-3.9
2017-01-09T11:34:37.502Z,-3.85
2017-01-09T11:35:46.187Z,-3.84
2017-01-09T11:36:54.872Z,-3.68
2017-01-09T11:38:03.571Z,-3.69
2017-01-09T11:39:12.261Z,-3.66
2017-01-09T11:40:20.946Z,-3.69
2017-01-09T11:41:29.651Z,-3.64
2017-01-09T11:42:38.334Z,-3.53
2017-01-09T11:43:47.016Z,-3.64
2017-01-09T11:44:55.709Z,-3.71
2017-01-09T11:46:04.398Z,-3.69
2017-01-09T11:47:13.089Z,-3.75
2017-01-09T11:48:21.770Z,-3.65
2017-01-09T11:49:30.463Z,-3.68
2017-01-09T11:50:39.547Z,-3.74
2017-01-09T11:51:48.234Z,-3.62
2017-01-09T11:52:56.923Z,-3.65
2017-01-09T11:54:05.674Z,-3.68
2017-01-09T11:55:14.356Z,-3.77
2017-01-09T11:56:23.041Z,-3.68
2017-01-09T11:57:31.727Z,-3.68
2017-01-09T11:58:40.413Z,-3.65
2017-01-09T11:59:49.102Z,-3.69
2017-01-09T12:00:57.791Z,-3.71
2017-01-09T12:02:06.477Z,-3.65
2017-01-09T12:03:15.167Z,-3.65
2017-01-09T12:04:23.862Z,-3.61
2017-01-09T12:05:32.577Z,-3.61
2017-01-09T12:06:41.259Z,-3.48
2017-01-09T12:07:49.942Z,-3.47
2017-01-09T12:08:58.631Z,-3.38
2017-01-09T12:10:07.317Z,-3.48
2017-01-09T12:11:16.003Z,-3.5
2017-01-09T12:12:24.687Z,-3.5
2017-01-09T12:13:33.374Z,-3.46
2017-01-09T12:14:42.061Z,-3.48
2017-01-09T12:15:50.748Z,-3.55
2017-01-09T12:16:59.432Z,-3.62
2017-01-09T12:18:08.118Z,-3.66
2017-01-09T12:19:16.804Z,-3.64
2017-01-09T12:20:25.491Z,-3.74
2017-01-09T12:21:34.177Z,-3.75
2017-01-09T12:22:42.862Z,-3.66
2017-01-09T12:23:51.549Z,-3.75
2017-01-09T12:25:00.229Z,-3.65
2017-01-09T12:26:08.924Z,-3.68
2017-01-09T12:27:17.613Z,-3.66
2017-01-09T12:28:26.295Z,-3.65
2017-01-09T12:29:34.988Z,-3.59
2017-01-09T12:30:43.690Z,-3.61
2017-01-09T12:31:52.381Z,-3.51
2017-01-09T12:33:01.070Z,-3.47
2017-01-09T12:34:09.754Z,-3.53
2017-01-09T12:35:18.437Z,-3.47
2017-01-09T12:36:27.131Z,-3.41
2017-01-09T12:37:35.839Z,-3.43
2017-01-09T12:38:44.522Z,-3.37
2017-01-09T12:39:53.205Z,-3.27
2017-01-09T12:41:01.890Z,-3.22
2017-01-09T12:42:10.576Z,-3.27
2017-01-09T12:43:19.286Z,-3.19
2017-01-09T12:44:27.966Z,-3.22
2017-01-09T12:45:36.648Z,-3.17
2017-01-09T12:46:45.352Z,-3.09
2017-01-09T12:47:54.046Z,-3.12
2017-01-09T12:49:03.130Z,-3.14
2017-01-09T12:50:11.824Z,-3.23
2017-01-09T12:51:20.522Z,-3.09
2017-01-09T12:52:29.210Z,-3.23
2017-01-09T12:53:37.895Z,-3.17
2017-01-09T12:54:46.591Z,-3.12
2017-01-09T12:55:55.271Z,-3.2
2017-01-09T12:57:03.957Z,-3.17
2017-01-09T12:58:12.639Z,-3.23
2017-01-09T12:59:21.321Z,-3.15
2017-01-09T13:00:30.005Z,-3.19
2017-01-09T13:01:38.693Z,-3.08
2017-01-09T13:02:47.374Z,-3.11
2017-01-09T13:03:56.063Z,-3.14
2017-01-09T13:05:04.749Z,-3.11
2017-01-09T13:06:13.433Z,-3.17
2017-01-09T13:07:22.128Z,-3.09
2017-01-09T13:08:30.812Z,-3.09
2017-01-09T13:09:39.514Z,-3.07
2017-01-09T13:10:48.238Z,-3.14
2017-01-09T13:11:56.939Z,-3.02
2017-01-09T13:13:05.640Z,-3.11
2017-01-09T13:14:14.326Z,-3.08
2017-01-09T13:15:23.011Z,-3.01
2017-01-09T13:16:31.697Z,-3.07
2017-01-09T13:17:40.379Z,-3.05
2017-01-09T13:18:49.062Z,-3.07
2017-01-09T13:19:57.749Z,-3.02
2017-01-09T13:21:06.439Z,-3.01
2017-01-09T13:22:15.524Z,-2.99
2017-01-09T13:23:24.216Z,-2.99
2017-01-09T13:24:32.897Z,-3.01
2017-01-09T13:25:41.583Z,-2.93
2017-01-09T13:26:50.275Z,-3.01
2017-01-09T13:27:58.961Z,-2.91
2017-01-09T13:29:07.645Z,-2.94
2017-01-09T13:30:16.330Z,-2.94
2017-01-09T13:31:25.014Z,-3.01
2017-01-09T13:32:33.704Z,-2.93
2017-01-09T13:33:42.396Z,-2.94
2017-01-09T13:34:51.078Z,-2.91
2017-01-09T13:35:59.768Z,-2.86
2017-01-09T13:37:08.522Z,-2.9
2017-01-09T13:38:17.216Z,-2.93
2017-01-09T13:39:25.903Z,-2.87
2017-01-09T13:40:34.597Z,-2.9
2017-01-09T13:41:43.438Z,-2.89
2017-01-09T13:42:52.133Z,-2.98
2017-01-09T13:44:00.824Z,-3.02
2017-01-09T13:45:09.507Z,-3.09
2017-01-09T13:46:18.200Z,-3.11
2017-01-09T13:47:26.900Z,-3.09
2017-01-09T13:48:35.582Z,-3.15
2017-01-09T13:49:44.266Z,-3.23
2017-01-09T13:50:52.955Z,-3.12
2017-01-09T13:52:01.648Z,-3.23
2017-01-09T13:53:10.387Z,-3.29
2017-01-09T13:54:19.074Z,-3.26
2017-01-09T13:55:27.779Z,-3.38
2017-01-09T13:56:36.465Z,-3.36
2017-01-09T13:57:45.154Z,-3.36
2017-01-09T13:58:53.836Z,-3.4
2017-01-09T14:00:02.524Z,-3.43
2017-01-09T14:01:11.211Z,-3.46
2017-01-09T14:02:19.898Z,-3.44
2017-01-09T14:03:28.583Z,-3.48
2017-01-09T14:04:37.300Z,-3.48
2017-01-09T14:05:45.987Z,-3.5
2017-01-09T14:06:54.671Z,-3.53
2017-01-09T14:08:03.361Z,-3.47
2017-01-09T14:09:12.041Z,-3.56
2017-01-09T14:10:20.740Z,-3.5
2017-01-09T14:11:29.425Z,-3.48
2017-01-09T14:12:38.116Z,-3.47
2017-01-09T14:13:46.802Z,-3.48
2017-01-09T14:14:55.485Z,-3.47
2017-01-09T14:16:04.167Z,-3.51
2017-01-09T14:17:12.857Z,-3.46
2017-01-09T14:18:21.568Z,-3.51
2017-01-09T14:19:30.257Z,-3.46
2017-01-09T14:20:38.943Z,-3.41
2017-01-09T14:21:47.630Z,-3.44
2017-01-09T14:22:56.313Z,-3.44
2017-01-09T14:24:04.998Z,-3.43
2017-01-09T14:25:13.685Z,-3.46
2017-01-09T14:26:22.366Z,-3.46
2017-01-09T14:27:31.060Z,-3.4
2017-01-09T14:28:39.752Z,-3.48
2017-01-09T14:29:48.436Z,-3.41
2017-01-09T14:30:57.138Z,-3.43
2017-01-09T14:32:05.833Z,-3.37
2017-01-09T14:33:14.559Z,-3.3
2017-01-09T14:34:23.249Z,-3.38
2017-01-09T14:35:31.936Z,-3.37
2017-01-09T14:36:40.627Z,-3.2
2017-01-09T14:37:49.321Z,-3.3
2017-01-09T14:38:58.011Z,-3.22
2017-01-09T14:40:06.696Z,-3.29
2017-01-09T14:41:15.378Z,-3.14
2017-01-09T14:42:24.072Z,-3.17
2017-01-09T14:43:32.767Z,-3.15
2017-01-09T14:44:41.453Z,-3.09
2017-01-09T14:45:50.137Z,-3.11
2017-01-09T14:46:59.225Z,-3.05